»·PEaware :: N23ND KBIL-KDLN

N23ND :: KBIL-KDLN

FLIGHT INFORMATION

Flight Status: Arrived
Operator: Privately registered:
United States
More flights under this callsign
Pilot: Alex K. (14822)
Aircraft: Unknown
(C90)
More flights by this aircraft type
Origin: KBIL Billings Logan Intl
United States
Destination: KDLN Dillon
United States
More flights between these airports :: More routes between these airports
Route: +BIL5 V86 ZUBLI V365 BZN V343 JOXIT
File this flight plan on PilotEdge
Remarks: oofda der guy
Altitude:
(Current/Filed)
20,000ft
Speed:
(Current/Filed)
280kts
Departed: 23-Oct-19 11:19 AM
Arrived: 23-Oct-19 12:22 PM
Distance/Time
Traveled:
172nm/1:02
Distance/Time
To Go:
Arrived

Flight Plot

Page will automatically refresh every two minutes.

Flight plan parsing failed; only flown route is shown


Map Options




Map Legend


Flown Route
Filed Route
Departure Airport
Arrival Airport
Navaid (VOR, NDB)
Fix

Horizontal Profiles

Position Reports

Time Latitude Longitude Heading Altitude Ground
Speed
23-Oct-19 10:58 45.805257 -108.555011 202 3654ft 0kts
23-Oct-19 10:59 45.805257 -108.555011 202 3654ft 0kts
23-Oct-19 11:00 45.805257 -108.555011 202 3654ft 0kts
23-Oct-19 11:02 45.805257 -108.555011 202 3654ft 0kts
23-Oct-19 11:03 45.805257 -108.555011 202 3654ft 0kts
23-Oct-19 11:04 45.805257 -108.555011 202 3654ft 0kts
23-Oct-19 11:05 45.805257 -108.555011 202 3654ft 0kts
23-Oct-19 11:06 45.805257 -108.555011 201 3654ft 0kts
23-Oct-19 11:07 45.805257 -108.555011 202 3654ft 0kts
23-Oct-19 11:08 45.805256 -108.555011 202 3654ft 0kts
23-Oct-19 11:09 45.805256 -108.555011 202 3654ft 0kts
23-Oct-19 11:10 45.805256 -108.555011 202 3654ft 0kts
23-Oct-19 11:11 45.805257 -108.555011 202 3654ft 0kts
23-Oct-19 11:12 45.805257 -108.555011 202 3654ft 0kts
23-Oct-19 11:13 45.806051 -108.553937 50 3654ft 10kts
23-Oct-19 11:14 45.804638 -108.547531 56 3654ft 18kts
23-Oct-19 11:15 45.805879 -108.542635 90 3654ft 21kts
23-Oct-19 11:16 45.805346 -108.535263 110 3654ft 24kts
23-Oct-19 11:17 45.803452 -108.525806 111 3654ft 28kts
23-Oct-19 11:18 45.801542 -108.516994 24 3654ft 15kts
23-Oct-19 11:19 45.803364 -108.521293 291 3654ft 85kts
23-Oct-19 11:19 45.812243 -108.557304 293 4660ft 130kts
23-Oct-19 11:21 45.824814 -108.615429 291 6589ft 132kts
23-Oct-19 11:22 45.820630 -108.670207 268 8161ft 142kts
23-Oct-19 11:22 45.815475 -108.716996 269 9495ft 145kts
23-Oct-19 11:23 45.809112 -108.774569 269 11037ft 148kts
23-Oct-19 11:25 45.801475 -108.843957 269 12711ft 152kts
23-Oct-19 11:26 45.794692 -108.904888 269 14184ft 156kts
23-Oct-19 11:26 45.791545 -108.956859 272 15254ft 157kts
23-Oct-19 11:27 45.788099 -109.020102 272 16610ft 161kts
23-Oct-19 11:28 45.784562 -109.085190 272 17876ft 162kts
23-Oct-19 11:29 45.780946 -109.150816 271 18675ft 168kts
23-Oct-19 11:30 45.777230 -109.218093 271 19442ft 169kts
23-Oct-19 11:31 45.773419 -109.286342 271 20076ft 174kts
23-Oct-19 11:32 45.769503 -109.354466 271 20818ft 164kts
23-Oct-19 11:33 45.765929 -109.415978 272 21828ft 144kts
23-Oct-19 11:34 45.762748 -109.472256 270 22388ft 155kts
23-Oct-19 11:35 45.758803 -109.541240 269 22353ft 188kts
23-Oct-19 11:36 45.754205 -109.619311 269 22353ft 204kts
23-Oct-19 11:37 45.751290 -109.667983 268 22356ft 209kts
23-Oct-19 11:38 45.749131 -109.705237 268 22362ft 210kts
23-Oct-19 11:39 45.744019 -109.789722 268 22362ft 214kts
23-Oct-19 11:40 45.738777 -109.875086 268 22362ft 214kts
23-Oct-19 11:41 45.733527 -109.959963 268 22364ft 213kts
23-Oct-19 11:42 45.728216 -110.044927 268 22363ft 213kts
23-Oct-19 11:43 45.722870 -110.129453 268 22360ft 213kts
23-Oct-19 11:44 45.717420 -110.214428 268 22354ft 213kts
23-Oct-19 11:45 45.711953 -110.298997 268 22349ft 213kts
23-Oct-19 11:46 45.706414 -110.383536 268 22346ft 213kts
23-Oct-19 11:47 45.699570 -110.467820 265 22345ft 213kts
23-Oct-19 11:48 45.690279 -110.551982 266 22345ft 213kts
23-Oct-19 11:49 45.680866 -110.635795 266 22348ft 212kts
23-Oct-19 11:50 45.671425 -110.719335 265 22361ft 213kts
23-Oct-19 11:51 45.661851 -110.803653 266 22378ft 213kts
23-Oct-19 11:52 45.652257 -110.887499 266 22366ft 213kts
23-Oct-19 11:53 45.677475 -110.958027 307 22371ft 201kts
23-Oct-19 11:54 45.711395 -111.022441 308 22375ft 203kts
23-Oct-19 11:55 45.746143 -111.086211 309 22370ft 203kts
23-Oct-19 11:56 45.770888 -111.155276 250 22369ft 217kts
23-Oct-19 11:57 45.714958 -111.200011 210 22377ft 237kts
23-Oct-19 11:58 45.654145 -111.238643 210 22391ft 239kts
23-Oct-19 11:59 45.593338 -111.277482 210 22381ft 240kts
23-Oct-19 12:00 45.532327 -111.316264 210 22373ft 238kts
23-Oct-19 12:01 45.471730 -111.354792 210 22371ft 238kts
23-Oct-19 12:02 45.453965 -111.427764 278 22374ft 202kts
23-Oct-19 12:03 45.460028 -111.513301 282 21496ft 230kts
23-Oct-19 12:04 45.469072 -111.606359 282 20500ft 241kts
23-Oct-19 12:05 45.478694 -111.702176 282 19505ft 245kts
23-Oct-19 12:06 45.488402 -111.798882 282 18514ft 247kts
23-Oct-19 12:07 45.498112 -111.896175 282 17515ft 247kts
23-Oct-19 12:08 45.507751 -111.993998 281 16514ft 249kts
23-Oct-19 12:09 45.517263 -112.091481 281 15513ft 245kts
23-Oct-19 12:10 45.526481 -112.186588 281 14496ft 237kts
23-Oct-19 12:11 45.535146 -112.276814 281 13463ft 221kts
23-Oct-19 12:12 45.540568 -112.360441 256 12298ft 211kts
23-Oct-19 12:13 45.507615 -112.424965 232 10374ft 197kts
23-Oct-19 12:14 45.471575 -112.483152 229 8379ft 189kts
23-Oct-19 12:15 45.438008 -112.527456 206 7574ft 127kts
23-Oct-19 12:16 45.408479 -112.546516 206 7407ft 137kts
23-Oct-19 12:17 45.369589 -112.556092 179 7361ft 143kts
23-Oct-19 12:18 45.331795 -112.554778 179 6662ft 118kts
23-Oct-19 12:19 45.299297 -112.553713 179 5931ft 124kts
23-Oct-19 12:20 45.266687 -112.552539 177 5278ft 99kts
23-Oct-19 12:21 45.256812 -112.553106 181 5244ft 10kts
23-Oct-19 12:22 45.254158 -112.553546 111 5244ft 6kts
23-Oct-19 12:23 45.254137 -112.553331 87 5244ft 0kts
23-Oct-19 12:24 45.254137 -112.553331 87 5244ft 0kts
23-Oct-19 12:25 45.254137 -112.553331 87 5244ft 0kts
23-Oct-19 12:26 45.254137 -112.553331 87 5244ft 0kts
23-Oct-19 12:27 45.254137 -112.553331 87 5244ft 0kts
23-Oct-19 12:28 45.254137 -112.553331 87 5244ft 0kts
23-Oct-19 12:29 45.254137 -112.553331 87 5244ft 0kts

Navigation Log

Ident Type
Flight plan parsing failed, navigation log unavailable